Terminal Aerodrome Forecast
Issued by NWS Sterling, VA

Home | Current Version | Previous Version | Text Only | Print | Product List | Glossary On
Versions: 1 2 3 4 5 6 7 8 9 10 11 12 13 14
000
FTUS41 KLWX 020500
TAFCHO
TAF
KCHO 020532Z 0206/0306 04004KT 5SM BR SCT015 OVC025
     FM020700 04004KT 3SM BR BKN008 OVC015
     FM021400 04006KT P6SM OVC015
     FM021500 05006KT P6SM SCT015 OVC025
     FM022000 09005KT P6SM SCT020 OVC050
     FM030000 00000KT P6SM SCT030 OVC050=

USA.gov is the U.S. government's official web portal to all federal, state and local government web resources and services.